Loup City, NE (68853)

00:43 CDT je la 01an de aŭgusto 2015 (GMT -0500)
Central | | Change Station
CLOSE
Current Station
Personaj Veter-Stacioj
Location: Loup City, NE
Alteco: 2090 ft
Najbaraj veter-stacioj

Elev 2090 ft 41.28 °N, 98.97 °W | Updated 12 minutes ago

Sennuba
Sennuba
66.2 °F
Sentas kiel 66.2 °F
N
0.0
Vento Varianta Vento from Sudo

hodiaŭ
High -- | Low -- °F
--% Ebla precip.
hieraŭ
High -- | Low -- °F
Precip. -- co
6:30 AM 8:52 PM
Plenlumo, 99% visible
Aerpremo 30.08 co
Vidodistanco 10.0 mejloj
Nuboj Sennuba
Rosopunkto 64 °F
Humido 93%
Pluvokvanto 0.00 co
Neĝprofundo Not available.
UV 0 out of 12
Pollen 7.00 out of 12
Aerkvalito Not available.
Flu Activity Not available.
METAR KODX 010453Z AUTO 00000KT 10SM CLR 18/17 A3011 RMK AO2 SLP185 T01830172 $

More Conditions Fewer Conditions

Aerpremo 30.08 co
Vidodistanco 10.0 mejloj
Nuboj Sennuba
Rosopunkto 64 °F
Humido 93%
Pluvokvanto 0.00 co
Neĝprofundo Not available.
UV 0 out of 12
Pollen 7.00 out of 12
Aerkvalito Not available.
Flu Activity Not available.
METAR KODX 010453Z AUTO 00000KT 10SM CLR 18/17 A3011 RMK AO2 SLP185 T01830172 $

More Conditions Fewer Conditions

10-Day Weather Forecast

×

Almanac

Astronomio

Aug. 01, 2015 Leviĝo Subiro
Aktuala tempo
Civila krepusko
Naŭtika krepusko
Astronomia krepusko
Luno
Daŭro de videbla lumo
Daŭro de tago
Tomorrow will be .
, % of the Moon is Illuminated

Hodiaŭaj ekstremaĵoj

State Highs State Lows

Community

WunderPhotos

Upload Photos

1,842,887 photos uploaded!

WunderBlogs® & News

Nearby

Aerkvalito

  Aerkvalito Aerkvalita indico Poluanto
Not available.

Neĝa profundeco

Station Depth Alteco

Earthquake Activity

Urbo Distance Mag. Time & Date
Minimum magnitude displayed is 2.5.

Coastal Water Temperatures

Loko Temperaturo

Stations

Najbaraj veter-stacioj

Loko de stacio Temp Venta
kvazaŭtemperaturo
Rosopunkto Humido Vento Precip. Elev Ĝisdatigita je Tipo